sensor_id;sensor_type;location;lat;lon;timestamp;temperature;humidity
82877;DHT22;72655;47.596;7.658;2023-12-22T05:55:14;8.10;99.90
82877;DHT22;72655;47.596;7.658;2023-12-22T05:57:41;8.20;99.90
82877;DHT22;72655;47.596;7.658;2023-12-22T06:00:08;8.20;99.90
82877;DHT22;72655;47.596;7.658;2023-12-22T06:02:37;8.20;99.90
82877;DHT22;72655;47.596;7.658;2023-12-22T06:05:05;8.20;99.90
82877;DHT22;72655;47.596;7.658;2023-12-22T06:07:32;8.20;99.90
82877;DHT22;72655;47.596;7.658;2023-12-22T06:09:59;8.20;99.90
82877;DHT22;72655;47.596;7.658;2023-12-22T06:12:27;8.20;99.90
82877;DHT22;72655;47.596;7.658;2023-12-22T06:14:54;8.20;99.90
82877;DHT22;72655;47.596;7.658;2023-12-22T06:17:21;8.10;99.90
82877;DHT22;72655;47.596;7.658;2023-12-22T06:19:48;8.10;99.90
82877;DHT22;72655;47.596;7.658;2023-12-22T06:22:15;8.10;99.90
82877;DHT22;72655;47.596;7.658;2023-12-22T06:24:42;8.00;99.90
82877;DHT22;72655;47.596;7.658;2023-12-22T06:27:08;8.00;99.90
82877;DHT22;72655;47.596;7.658;2023-12-22T06:29:37;8.00;99.90
82877;DHT22;72655;47.596;7.658;2023-12-22T06:32:05;8.00;99.90
82877;DHT22;72655;47.596;7.658;2023-12-22T06:34:33;8.00;99.90
82877;DHT22;72655;47.596;7.658;2023-12-22T06:37:00;8.00;99.90
82877;DHT22;72655;47.596;7.658;2023-12-22T06:39:27;8.00;99.90
82877;DHT22;72655;47.596;7.658;2023-12-22T06:41:53;8.00;99.90
82877;DHT22;72655;47.596;7.658;2023-12-22T06:44:20;8.00;99.90
82877;DHT22;72655;47.596;7.658;2023-12-22T06:46:49;7.90;99.90
82877;DHT22;72655;47.596;7.658;2023-12-22T06:49:16;7.90;99.90
82877;DHT22;72655;47.596;7.658;2023-12-22T06:51:43;7.90;99.90
82877;DHT22;72655;47.596;7.658;2023-12-22T06:54:09;8.00;99.90
82877;DHT22;72655;47.596;7.658;2023-12-22T06:56:37;8.00;99.90
82877;DHT22;72655;47.596;7.658;2023-12-22T06:59:06;8.00;99.90
82877;DHT22;72655;47.596;7.658;2023-12-22T07:01:34;8.00;99.90
82877;DHT22;72655;47.596;7.658;2023-12-22T07:04:03;7.90;99.90
82877;DHT22;72655;47.596;7.658;2023-12-22T07:06:33;7.90;99.90
82877;DHT22;72655;47.596;7.658;2023-12-22T07:09:33;7.90;99.90
82877;DHT22;72655;47.596;7.658;2023-12-22T07:11:59;7.90;99.90
82877;DHT22;72655;47.596;7.658;2023-12-22T07:14:27;7.90;99.90
82877;DHT22;72655;47.596;7.658;2023-12-22T07:16:54;7.80;99.90
82877;DHT22;72655;47.596;7.658;2023-12-22T07:19:22;7.90;99.90
82877;DHT22;72655;47.596;7.658;2023-12-22T07:21:49;7.80;99.90
82877;DHT22;72655;47.596;7.658;2023-12-22T07:24:16;7.90;99.90
82877;DHT22;72655;47.596;7.658;2023-12-22T07:26:44;7.90;99.90
82877;DHT22;72655;47.596;7.658;2023-12-22T07:29:11;7.90;99.90
82877;DHT22;72655;47.596;7.658;2023-12-22T07:31:38;7.90;99.90
82877;DHT22;72655;47.596;7.658;2023-12-22T07:34:05;7.90;99.90
82877;DHT22;72655;47.596;7.658;2023-12-22T07:36:33;7.90;99.90
82877;DHT22;72655;47.596;7.658;2023-12-22T07:39:00;7.90;99.90
82877;DHT22;72655;47.596;7.658;2023-12-22T07:41:27;7.80;99.90
82877;DHT22;72655;47.596;7.658;2023-12-22T07:43:54;7.80;99.90
82877;DHT22;72655;47.596;7.658;2023-12-22T07:46:21;7.80;99.90
82877;DHT22;72655;47.596;7.658;2023-12-22T07:48:48;7.90;99.90
82877;DHT22;72655;47.596;7.658;2023-12-22T07:51:16;7.90;99.90
82877;DHT22;72655;47.596;7.658;2023-12-22T07:53:44;7.90;99.90
82877;DHT22;72655;47.596;7.658;2023-12-22T07:56:11;7.90;99.90
82877;DHT22;72655;47.596;7.658;2023-12-22T07:58:38;7.90;99.90
82877;DHT22;72655;47.596;7.658;2023-12-22T08:01:05;7.90;99.90
82877;DHT22;72655;47.596;7.658;2023-12-22T08:03:32;7.90;99.90
82877;DHT22;72655;47.596;7.658;2023-12-22T08:05:59;7.90;99.90
82877;DHT22;72655;47.596;7.658;2023-12-22T08:08:26;7.90;99.90
82877;DHT22;72655;47.596;7.658;2023-12-22T08:10:54;7.90;99.90
82877;DHT22;72655;47.596;7.658;2023-12-22T08:13:21;7.90;99.90
82877;DHT22;72655;47.596;7.658;2023-12-22T08:15:48;7.90;99.90
82877;DHT22;72655;47.596;7.658;2023-12-22T08:18:15;7.90;99.90
82877;DHT22;72655;47.596;7.658;2023-12-22T08:20:42;7.90;99.90
82877;DHT22;72655;47.596;7.658;2023-12-22T08:23:09;8.00;99.90
82877;DHT22;72655;47.596;7.658;2023-12-22T08:25:37;8.00;99.90
82877;DHT22;72655;47.596;7.658;2023-12-22T08:28:08;8.00;99.90
82877;DHT22;72655;47.596;7.658;2023-12-22T08:30:35;8.00;99.90
82877;DHT22;72655;47.596;7.658;2023-12-22T08:33:03;8.00;99.90
82877;DHT22;72655;47.596;7.658;2023-12-22T08:35:30;8.00;99.90
82877;DHT22;72655;47.596;7.658;2023-12-22T08:37:57;8.00;99.90
82877;DHT22;72655;47.596;7.658;2023-12-22T08:40:24;8.00;99.90
82877;DHT22;72655;47.596;7.658;2023-12-22T08:42:52;8.00;99.90
82877;DHT22;72655;47.596;7.658;2023-12-22T08:45:26;8.00;99.90
82877;DHT22;72655;47.596;7.658;2023-12-22T08:47:54;8.00;99.90
82877;DHT22;72655;47.596;7.658;2023-12-22T08:50:22;8.10;99.90
82877;DHT22;72655;47.596;7.658;2023-12-22T08:52:49;8.10;99.90
82877;DHT22;72655;47.596;7.658;2023-12-22T08:55:16;8.10;99.90
82877;DHT22;72655;47.596;7.658;2023-12-22T08:57:43;8.10;99.90
82877;DHT22;72655;47.596;7.658;2023-12-22T09:00:11;8.10;99.90
82877;DHT22;72655;47.596;7.658;2023-12-22T09:02:40;8.10;99.90
82877;DHT22;72655;47.596;7.658;2023-12-22T09:05:07;8.00;99.90
82877;DHT22;72655;47.596;7.658;2023-12-22T09:07:34;8.10;99.90
82877;DHT22;72655;47.596;7.658;2023-12-22T09:10:01;8.10;99.90
82877;DHT22;72655;47.596;7.658;2023-12-22T09:12:29;8.10;99.90
82877;DHT22;72655;47.596;7.658;2023-12-22T09:14:56;8.10;99.90
82877;DHT22;72655;47.596;7.658;2023-12-22T09:17:26;8.10;99.90
82877;DHT22;72655;47.596;7.658;2023-12-22T09:19:54;8.10;99.90
82877;DHT22;72655;47.596;7.658;2023-12-22T09:22:21;8.10;99.90
82877;DHT22;72655;47.596;7.658;2023-12-22T09:24:48;8.00;99.90
82877;DHT22;72655;47.596;7.658;2023-12-22T09:27:15;8.10;99.90
82877;DHT22;72655;47.596;7.658;2023-12-22T09:29:42;8.00;99.90
82877;DHT22;72655;47.596;7.658;2023-12-22T09:32:09;8.10;99.90
82877;DHT22;72655;47.596;7.658;2023-12-22T09:34:36;8.10;99.90
82877;DHT22;72655;47.596;7.658;2023-12-22T09:37:06;8.10;99.90
82877;DHT22;72655;47.596;7.658;2023-12-22T09:39:33;8.10;99.90
82877;DHT22;72655;47.596;7.658;2023-12-22T09:42:00;8.20;99.90
82877;DHT22;72655;47.596;7.658;2023-12-22T09:44:32;8.20;99.90
82877;DHT22;72655;47.596;7.658;2023-12-22T09:46:59;8.20;99.90
82877;DHT22;72655;47.596;7.658;2023-12-22T09:49:30;8.20;99.90
82877;DHT22;72655;47.596;7.658;2023-12-22T09:51:57;8.20;99.90
82877;DHT22;72655;47.596;7.658;2023-12-22T09:54:26;8.20;99.90
82877;DHT22;72655;47.596;7.658;2023-12-22T09:56:54;8.30;99.90
82877;DHT22;72655;47.596;7.658;2023-12-22T09:59:21;8.20;99.90
82877;DHT22;72655;47.596;7.658;2023-12-22T10:01:50;8.30;99.90
82877;DHT22;72655;47.596;7.658;2023-12-22T10:04:19;8.20;99.90
82877;DHT22;72655;47.596;7.658;2023-12-22T10:06:47;8.20;99.90
82877;DHT22;72655;47.596;7.658;2023-12-22T10:09:16;8.20;99.90
82877;DHT22;72655;47.596;7.658;2023-12-22T10:11:44;8.20;99.90
82877;DHT22;72655;47.596;7.658;2023-12-22T10:14:13;8.20;99.90
82877;DHT22;72655;47.596;7.658;2023-12-22T10:16:48;8.20;99.90
82877;DHT22;72655;47.596;7.658;2023-12-22T10:19:15;8.30;99.90
82877;DHT22;72655;47.596;7.658;2023-12-22T10:21:42;8.30;99.90
82877;DHT22;72655;47.596;7.658;2023-12-22T10:24:36;8.30;99.90
82877;DHT22;72655;47.596;7.658;2023-12-22T10:27:05;8.40;99.90
82877;DHT22;72655;47.596;7.658;2023-12-22T10:29:32;8.40;99.90
82877;DHT22;72655;47.596;7.658;2023-12-22T10:32:01;8.40;99.90
82877;DHT22;72655;47.596;7.658;2023-12-22T10:34:28;8.40;99.90
82877;DHT22;72655;47.596;7.658;2023-12-22T10:36:55;8.40;99.90
82877;DHT22;72655;47.596;7.658;2023-12-22T10:39:22;8.40;99.90
82877;DHT22;72655;47.596;7.658;2023-12-22T10:41:49;8.40;99.90
82877;DHT22;72655;47.596;7.658;2023-12-22T10:44:17;8.30;99.90
82877;DHT22;72655;47.596;7.658;2023-12-22T10:46:47;8.30;99.90
82877;DHT22;72655;47.596;7.658;2023-12-22T10:49:14;8.30;99.90
82877;DHT22;72655;47.596;7.658;2023-12-22T10:51:42;8.30;99.90
82877;DHT22;72655;47.596;7.658;2023-12-22T10:54:09;8.30;99.90
82877;DHT22;72655;47.596;7.658;2023-12-22T10:56:36;8.30;99.90
82877;DHT22;72655;47.596;7.658;2023-12-22T10:59:03;8.40;99.90
82877;DHT22;72655;47.596;7.658;2023-12-22T11:01:33;8.40;99.90
82877;DHT22;72655;47.596;7.658;2023-12-22T11:04:06;8.40;99.90
82877;DHT22;72655;47.596;7.658;2023-12-22T11:06:36;8.50;99.90
82877;DHT22;72655;47.596;7.658;2023-12-22T11:09:06;8.50;99.90
82877;DHT22;72655;47.596;7.658;2023-12-22T11:11:35;8.60;99.90
82877;DHT22;72655;47.596;7.658;2023-12-22T11:14:02;8.60;99.90
82877;DHT22;72655;47.596;7.658;2023-12-22T11:16:30;8.60;99.90
82877;DHT22;72655;47.596;7.658;2023-12-22T11:19:01;8.60;99.90
82877;DHT22;72655;47.596;7.658;2023-12-22T11:21:31;8.70;99.90
82877;DHT22;72655;47.596;7.658;2023-12-22T11:23:59;8.70;99.90
82877;DHT22;72655;47.596;7.658;2023-12-22T11:26:27;8.70;99.90
82877;DHT22;72655;47.596;7.658;2023-12-22T11:28:55;8.70;99.90
82877;DHT22;72655;47.596;7.658;2023-12-22T11:31:24;8.70;99.90
82877;DHT22;72655;47.596;7.658;2023-12-22T11:33:52;8.80;99.90
82877;DHT22;72655;47.596;7.658;2023-12-22T11:36:23;8.80;99.90
82877;DHT22;72655;47.596;7.658;2023-12-22T11:38:50;8.80;99.90
82877;DHT22;72655;47.596;7.658;2023-12-22T11:41:21;8.80;99.90
82877;DHT22;72655;47.596;7.658;2023-12-22T11:43:51;8.80;99.90
82877;DHT22;72655;47.596;7.658;2023-12-22T11:46:19;8.80;99.90
82877;DHT22;72655;47.596;7.658;2023-12-22T11:48:49;8.80;99.90
82877;DHT22;72655;47.596;7.658;2023-12-22T11:51:18;8.80;99.90
82877;DHT22;72655;47.596;7.658;2023-12-22T11:53:47;8.80;99.90
82877;DHT22;72655;47.596;7.658;2023-12-22T11:56:14;8.90;99.90
82877;DHT22;72655;47.596;7.658;2023-12-22T11:58:44;8.90;99.90
82877;DHT22;72655;47.596;7.658;2023-12-22T12:01:17;8.90;99.90
82877;DHT22;72655;47.596;7.658;2023-12-22T12:03:49;8.90;99.90
82877;DHT22;72655;47.596;7.658;2023-12-22T12:06:21;8.90;99.90
82877;DHT22;72655;47.596;7.658;2023-12-22T12:08:50;8.90;99.90
82877;DHT22;72655;47.596;7.658;2023-12-22T12:11:19;9.00;99.90
82877;DHT22;72655;47.596;7.658;2023-12-22T12:13:46;9.00;99.90
82877;DHT22;72655;47.596;7.658;2023-12-22T12:16:15;9.00;99.90
82877;DHT22;72655;47.596;7.658;2023-12-22T12:18:45;9.00;99.90
82877;DHT22;72655;47.596;7.658;2023-12-22T12:21:12;9.00;99.90
82877;DHT22;72655;47.596;7.658;2023-12-22T12:23:41;9.00;99.90
82877;DHT22;72655;47.596;7.658;2023-12-22T12:26:11;9.00;99.90
82877;DHT22;72655;47.596;7.658;2023-12-22T12:28:38;9.10;99.90
82877;DHT22;72655;47.596;7.658;2023-12-22T12:31:10;9.10;99.90
82877;DHT22;72655;47.596;7.658;2023-12-22T12:33:37;9.10;99.90
82877;DHT22;72655;47.596;7.658;2023-12-22T12:36:05;9.10;99.90
82877;DHT22;72655;47.596;7.658;2023-12-22T12:38:46;9.10;99.90
82877;DHT22;72655;47.596;7.658;2023-12-22T12:41:16;9.10;99.90
82877;DHT22;72655;47.596;7.658;2023-12-22T12:43:50;9.20;99.90
82877;DHT22;72655;47.596;7.658;2023-12-22T12:46:18;9.20;99.90
82877;DHT22;72655;47.596;7.658;2023-12-22T12:48:45;9.20;99.90
82877;DHT22;72655;47.596;7.658;2023-12-22T12:51:12;9.30;99.90
82877;DHT22;72655;47.596;7.658;2023-12-22T12:53:39;9.30;99.90
82877;DHT22;72655;47.596;7.658;2023-12-22T12:56:06;9.40;99.90
82877;DHT22;72655;47.596;7.658;2023-12-22T12:58:34;9.40;99.90
82877;DHT22;72655;47.596;7.658;2023-12-22T13:01:06;9.40;99.90
82877;DHT22;72655;47.596;7.658;2023-12-22T13:03:33;9.40;99.90
82877;DHT22;72655;47.596;7.658;2023-12-22T13:06:07;9.40;99.90
82877;DHT22;72655;47.596;7.658;2023-12-22T13:08:34;9.50;99.90
82877;DHT22;72655;47.596;7.658;2023-12-22T13:11:01;9.50;99.90
82877;DHT22;72655;47.596;7.658;2023-12-22T13:13:29;9.50;99.90
82877;DHT22;72655;47.596;7.658;2023-12-22T13:15:58;9.50;99.90
82877;DHT22;72655;47.596;7.658;2023-12-22T13:18:25;9.50;99.90
82877;DHT22;72655;47.596;7.658;2023-12-22T13:20:52;9.50;99.90
82877;DHT22;72655;47.596;7.658;2023-12-22T13:23:19;9.40;99.90
82877;DHT22;72655;47.596;7.658;2023-12-22T13:25:46;9.50;99.90
82877;DHT22;72655;47.596;7.658;2023-12-22T13:28:13;9.50;99.90
82877;DHT22;72655;47.596;7.658;2023-12-22T13:30:40;9.50;99.90
82877;DHT22;72655;47.596;7.658;2023-12-22T13:33:08;9.50;99.90
82877;DHT22;72655;47.596;7.658;2023-12-22T13:35:36;9.40;99.90
82877;DHT22;72655;47.596;7.658;2023-12-22T13:38:05;9.40;99.90
82877;DHT22;72655;47.596;7.658;2023-12-22T13:40:33;9.40;99.90
82877;DHT22;72655;47.596;7.658;2023-12-22T13:43:00;9.40;99.90
82877;DHT22;72655;47.596;7.658;2023-12-22T13:45:28;9.30;99.90
82877;DHT22;72655;47.596;7.658;2023-12-22T13:47:55;9.30;99.90
82877;DHT22;72655;47.596;7.658;2023-12-22T13:50:24;9.30;99.90
82877;DHT22;72655;47.596;7.658;2023-12-22T13:52:51;9.30;99.90
82877;DHT22;72655;47.596;7.658;2023-12-22T13:55:20;9.30;99.90
82877;DHT22;72655;47.596;7.658;2023-12-22T13:57:48;9.40;99.90
82877;DHT22;72655;47.596;7.658;2023-12-22T14:00:24;9.40;99.90
82877;DHT22;72655;47.596;7.658;2023-12-22T14:02:51;9.40;99.90
82877;DHT22;72655;47.596;7.658;2023-12-22T14:05:19;9.50;99.90
82877;DHT22;72655;47.596;7.658;2023-12-22T14:07:48;9.50;99.90
82877;DHT22;72655;47.596;7.658;2023-12-22T14:10:15;9.50;99.90
82877;DHT22;72655;47.596;7.658;2023-12-22T14:12:42;9.50;99.90
82877;DHT22;72655;47.596;7.658;2023-12-22T14:15:10;9.50;99.90
82877;DHT22;72655;47.596;7.658;2023-12-22T14:17:37;9.60;99.90
82877;DHT22;72655;47.596;7.658;2023-12-22T14:20:05;9.50;99.90
82877;DHT22;72655;47.596;7.658;2023-12-22T14:22:35;9.60;99.90
82877;DHT22;72655;47.596;7.658;2023-12-22T14:25:05;9.60;99.90
82877;DHT22;72655;47.596;7.658;2023-12-22T14:27:32;9.60;99.90
82877;DHT22;72655;47.596;7.658;2023-12-22T14:29:59;9.60;99.90
82877;DHT22;72655;47.596;7.658;2023-12-22T14:32:26;9.60;99.90
82877;DHT22;72655;47.596;7.658;2023-12-22T14:34:55;9.60;99.90
82877;DHT22;72655;47.596;7.658;2023-12-22T14:37:22;9.60;99.90
82877;DHT22;72655;47.596;7.658;2023-12-22T14:39:49;9.60;99.90
82877;DHT22;72655;47.596;7.658;2023-12-22T14:42:17;9.60;99.90
82877;DHT22;72655;47.596;7.658;2023-12-22T14:44:44;9.60;99.90
82877;DHT22;72655;47.596;7.658;2023-12-22T14:47:11;9.60;99.90
82877;DHT22;72655;47.596;7.658;2023-12-22T14:49:38;9.50;99.90
82877;DHT22;72655;47.596;7.658;2023-12-22T14:52:05;9.50;99.90
82877;DHT22;72655;47.596;7.658;2023-12-22T14:54:32;9.50;99.90
82877;DHT22;72655;47.596;7.658;2023-12-22T14:56:59;9.50;99.90
82877;DHT22;72655;47.596;7.658;2023-12-22T14:59:27;9.40;99.90
82877;DHT22;72655;47.596;7.658;2023-12-22T15:01:54;9.40;99.90
82877;DHT22;72655;47.596;7.658;2023-12-22T15:04:21;9.40;99.90
82877;DHT22;72655;47.596;7.658;2023-12-22T15:06:49;9.40;99.90
82877;DHT22;72655;47.596;7.658;2023-12-22T15:09:16;9.40;99.90
82877;DHT22;72655;47.596;7.658;2023-12-22T15:11:44;9.40;99.90
82877;DHT22;72655;47.596;7.658;2023-12-22T15:14:11;9.40;99.90
82877;DHT22;72655;47.596;7.658;2023-12-22T15:16:43;9.40;99.90
82877;DHT22;72655;47.596;7.658;2023-12-22T15:19:12;9.40;99.90
82877;DHT22;72655;47.596;7.658;2023-12-22T15:21:39;9.40;99.90
82877;DHT22;72655;47.596;7.658;2023-12-22T15:24:07;9.40;99.90
82877;DHT22;72655;47.596;7.658;2023-12-22T15:26:34;9.50;99.90
82877;DHT22;72655;47.596;7.658;2023-12-22T15:29:02;9.40;99.90
82877;DHT22;72655;47.596;7.658;2023-12-22T15:31:30;9.40;99.90
82877;DHT22;72655;47.596;7.658;2023-12-22T15:33:58;9.40;99.90
82877;DHT22;72655;47.596;7.658;2023-12-22T15:36:25;9.40;99.90
82877;DHT22;72655;47.596;7.658;2023-12-22T15:38:53;9.40;99.90
82877;DHT22;72655;47.596;7.658;2023-12-22T15:41:20;9.40;99.90
82877;DHT22;72655;47.596;7.658;2023-12-22T15:43:47;9.40;99.90
82877;DHT22;72655;47.596;7.658;2023-12-22T15:46:14;9.40;99.90
82877;DHT22;72655;47.596;7.658;2023-12-22T15:48:41;9.40;99.90
82877;DHT22;72655;47.596;7.658;2023-12-22T15:51:10;9.40;99.90
82877;DHT22;72655;47.596;7.658;2023-12-22T15:53:37;9.40;99.90
82877;DHT22;72655;47.596;7.658;2023-12-22T15:56:05;9.40;99.90
82877;DHT22;72655;47.596;7.658;2023-12-22T15:58:32;9.30;99.90
82877;DHT22;72655;47.596;7.658;2023-12-22T16:01:00;9.30;99.90
82877;DHT22;72655;47.596;7.658;2023-12-22T16:03:27;9.30;99.90
82877;DHT22;72655;47.596;7.658;2023-12-22T16:05:54;9.20;99.90
82877;DHT22;72655;47.596;7.658;2023-12-22T16:08:23;9.10;99.90
82877;DHT22;72655;47.596;7.658;2023-12-22T16:10:50;9.10;99.90
82877;DHT22;72655;47.596;7.658;2023-12-22T16:13:17;9.10;99.90
82877;DHT22;72655;47.596;7.658;2023-12-22T16:15:44;9.10;99.90
82877;DHT22;72655;47.596;7.658;2023-12-22T16:18:11;9.00;99.90
82877;DHT22;72655;47.596;7.658;2023-12-22T16:20:38;9.00;99.90
82877;DHT22;72655;47.596;7.658;2023-12-22T16:23:05;9.00;99.90
82877;DHT22;72655;47.596;7.658;2023-12-22T16:25:33;9.00;99.90
82877;DHT22;72655;47.596;7.658;2023-12-22T16:28:00;9.10;99.90
82877;DHT22;72655;47.596;7.658;2023-12-22T16:30:27;9.10;99.90
82877;DHT22;72655;47.596;7.658;2023-12-22T16:32:54;9.10;99.90
82877;DHT22;72655;47.596;7.658;2023-12-22T16:35:21;9.10;99.90
82877;DHT22;72655;47.596;7.658;2023-12-22T16:37:48;9.10;99.90
82877;DHT22;72655;47.596;7.658;2023-12-22T16:40:15;9.20;99.90
82877;DHT22;72655;47.596;7.658;2023-12-22T16:42:44;9.20;99.90
82877;DHT22;72655;47.596;7.658;2023-12-22T16:45:11;9.20;99.90
82877;DHT22;72655;47.596;7.658;2023-12-22T16:47:37;9.20;99.90
82877;DHT22;72655;47.596;7.658;2023-12-22T16:50:06;9.20;99.90
82877;DHT22;72655;47.596;7.658;2023-12-22T16:52:33;9.20;99.90
82877;DHT22;72655;47.596;7.658;2023-12-22T16:55:00;9.30;99.90
82877;DHT22;72655;47.596;7.658;2023-12-22T16:57:27;9.20;99.90
82877;DHT22;72655;47.596;7.658;2023-12-22T16:59:56;9.20;99.90
82877;DHT22;72655;47.596;7.658;2023-12-22T17:02:23;9.20;99.90
82877;DHT22;72655;47.596;7.658;2023-12-22T17:04:50;9.10;99.90
82877;DHT22;72655;47.596;7.658;2023-12-22T17:07:16;9.20;99.90
82877;DHT22;72655;47.596;7.658;2023-12-22T17:09:45;9.20;99.90
82877;DHT22;72655;47.596;7.658;2023-12-22T17:12:12;9.10;99.90
82877;DHT22;72655;47.596;7.658;2023-12-22T17:14:39;9.10;99.90
82877;DHT22;72655;47.596;7.658;2023-12-22T17:17:08;9.20;99.90
82877;DHT22;72655;47.596;7.658;2023-12-22T17:19:34;9.10;99.90
82877;DHT22;72655;47.596;7.658;2023-12-22T17:22:01;9.20;99.90
82877;DHT22;72655;47.596;7.658;2023-12-22T17:24:28;9.20;99.90
82877;DHT22;72655;47.596;7.658;2023-12-22T17:26:55;9.20;99.90
82877;DHT22;72655;47.596;7.658;2023-12-22T17:29:23;9.20;99.90
82877;DHT22;72655;47.596;7.658;2023-12-22T17:31:50;9.20;99.90
82877;DHT22;72655;47.596;7.658;2023-12-22T17:34:22;9.20;99.90
82877;DHT22;72655;47.596;7.658;2023-12-22T17:36:49;9.20;99.90
82877;DHT22;72655;47.596;7.658;2023-12-22T17:39:16;9.20;99.90
82877;DHT22;72655;47.596;7.658;2023-12-22T17:41:43;9.20;99.90
82877;DHT22;72655;47.596;7.658;2023-12-22T17:44:10;9.20;99.90
82877;DHT22;72655;47.596;7.658;2023-12-22T17:46:37;9.10;99.90
82877;DHT22;72655;47.596;7.658;2023-12-22T17:49:05;9.10;99.90
82877;DHT22;72655;47.596;7.658;2023-12-22T17:51:33;9.00;99.90
82877;DHT22;72655;47.596;7.658;2023-12-22T17:54:00;9.00;99.90
82877;DHT22;72655;47.596;7.658;2023-12-22T17:56:27;9.00;99.90
82877;DHT22;72655;47.596;7.658;2023-12-22T17:58:54;9.00;99.90
82877;DHT22;72655;47.596;7.658;2023-12-22T18:01:21;9.00;99.90
82877;DHT22;72655;47.596;7.658;2023-12-22T18:03:48;9.10;99.90
82877;DHT22;72655;47.596;7.658;2023-12-22T18:06:19;9.10;99.90
82877;DHT22;72655;47.596;7.658;2023-12-22T18:08:49;9.00;99.90
82877;DHT22;72655;47.596;7.658;2023-12-22T18:11:16;9.00;99.90
82877;DHT22;72655;47.596;7.658;2023-12-22T18:13:43;9.00;99.90
82877;DHT22;72655;47.596;7.658;2023-12-22T18:16:09;9.00;99.90
82877;DHT22;72655;47.596;7.658;2023-12-22T18:18:36;9.00;99.90
82877;DHT22;72655;47.596;7.658;2023-12-22T18:21:04;9.00;99.90
82877;DHT22;72655;47.596;7.658;2023-12-22T18:23:31;9.00;99.90
82877;DHT22;72655;47.596;7.658;2023-12-22T18:26:00;9.00;99.90
82877;DHT22;72655;47.596;7.658;2023-12-22T18:28:27;9.00;99.90
82877;DHT22;72655;47.596;7.658;2023-12-22T18:30:54;9.00;99.90
82877;DHT22;72655;47.596;7.658;2023-12-22T18:33:21;9.00;99.90
82877;DHT22;72655;47.596;7.658;2023-12-22T18:35:51;9.00;99.90
82877;DHT22;72655;47.596;7.658;2023-12-22T18:38:18;8.90;99.90
82877;DHT22;72655;47.596;7.658;2023-12-22T18:40:45;9.00;99.90
82877;DHT22;72655;47.596;7.658;2023-12-22T18:43:13;9.00;99.90
82877;DHT22;72655;47.596;7.658;2023-12-22T18:45:40;9.00;99.90
82877;DHT22;72655;47.596;7.658;2023-12-22T18:48:07;9.00;99.90
82877;DHT22;72655;47.596;7.658;2023-12-22T18:50:34;9.00;99.90
